Terminal Aerodrome Forecast
Issued by NWS

Home | Current Version | Previous Version | Text Only | Print | Product List | Glossary On
Versions: 1 2 3 4 5 6 7 8 9 10 11 12 13 14 15 16 17 18 19 20 21 22 23 24 25 26 27 28
000
FTPA31 PHFO 191100
TAFOGG
TAF
PHOG 191120Z 1912/2012 06015G24KT P6SM VCSH SCT025 BKN045
     FM192000 06024G34KT P6SM FEW050
     FM200500 06015G22KT P6SM FEW050
      AMD LTD TO WX VIS AND WIND TIL 191600=

USA.gov is the U.S. government's official web portal to all federal, state and local government web resources and services.